createdAt,value
2022-08-17T00:00:16.575Z,34.00
2022-08-17T00:03:01.281Z,32.00
2022-08-17T00:05:32.192Z,34.00
2022-08-17T00:07:59.621Z,33.00
2022-08-17T00:10:27.065Z,33.00
2022-08-17T00:12:54.214Z,33.00
2022-08-17T00:15:22.913Z,32.50
2022-08-17T00:17:51.547Z,34.00
2022-08-17T00:20:19.346Z,32.00
2022-08-17T00:22:50.474Z,32.00
2022-08-17T00:25:30.926Z,32.00
2022-08-17T00:27:58.116Z,32.00
2022-08-17T00:30:25.134Z,32.00
2022-08-17T00:33:22.893Z,32.00
2022-08-17T00:35:40.661Z,33.00
2022-08-17T00:38:08.387Z,32.00
2022-08-17T00:40:44.607Z,32.00
2022-08-17T00:43:36.559Z,32.00
2022-08-17T00:46:13.880Z,32.75
2022-08-17T00:48:42.051Z,32.00
2022-08-17T00:51:20.605Z,33.50
2022-08-17T00:53:57.954Z,34.00
2022-08-17T00:56:30.390Z,32.00
2022-08-17T00:58:58.011Z,32.50
2022-08-17T01:01:25.507Z,32.00
2022-08-17T01:03:55.626Z,32.00
2022-08-17T01:06:28.393Z,32.00
2022-08-17T01:08:57.922Z,31.00
2022-08-17T01:11:25.945Z,31.25
2022-08-17T01:13:52.861Z,32.00
2022-08-17T01:16:29.218Z,32.00
2022-08-17T01:19:00.371Z,32.00
2022-08-17T01:21:45.821Z,32.00
2022-08-17T01:24:12.761Z,32.00
2022-08-17T01:26:41.430Z,33.00
2022-08-17T01:29:09.378Z,32.00
2022-08-17T01:31:41.267Z,32.00
2022-08-17T01:34:10.702Z,32.00
2022-08-17T01:36:40.521Z,32.00
2022-08-17T01:39:11.997Z,33.00
2022-08-17T01:41:40.900Z,32.00
2022-08-17T01:44:11.562Z,32.00
2022-08-17T01:46:38.598Z,33.00
2022-08-17T01:49:09.489Z,34.00
2022-08-17T01:51:37.331Z,32.00
2022-08-17T01:54:08.569Z,32.00
2022-08-17T01:56:54.110Z,33.25
2022-08-17T01:59:21.343Z,31.50
2022-08-17T02:01:48.401Z,32.00
2022-08-17T02:04:15.671Z,32.50
2022-08-17T02:06:53.638Z,32.00
2022-08-17T02:09:29.796Z,32.00
2022-08-17T02:11:59.342Z,32.50
2022-08-17T02:14:26.279Z,32.00
2022-08-17T02:16:53.866Z,32.00
2022-08-17T02:19:20.896Z,32.00
2022-08-17T02:21:50.408Z,31.00
2022-08-17T02:24:58.570Z,33.00
2022-08-17T02:27:13.596Z,32.00
2022-08-17T02:29:40.449Z,32.00
2022-08-17T02:32:28.243Z,31.00
2022-08-17T02:34:57.435Z,32.00
2022-08-17T02:37:25.721Z,32.00
2022-08-17T02:39:52.750Z,31.00
2022-08-17T02:42:30.508Z,31.00
2022-08-17T02:44:57.685Z,31.00
2022-08-17T02:47:25.310Z,31.00
2022-08-17T02:49:55.499Z,31.75
2022-08-17T02:52:42.506Z,32.00
2022-08-17T02:55:17.936Z,32.00
2022-08-17T02:57:45.346Z,32.50
2022-08-17T03:00:16.956Z,32.00
2022-08-17T03:02:45.571Z,31.00
2022-08-17T03:05:15.960Z,32.00
2022-08-17T03:07:43.001Z,33.00
2022-08-17T03:10:11.179Z,32.50
2022-08-17T03:12:40.248Z,33.00
2022-08-17T03:15:10.710Z,32.00
2022-08-17T03:17:37.811Z,31.00
2022-08-17T03:20:06.339Z,32.00
2022-08-17T03:22:41.448Z,32.00
2022-08-17T03:25:19.589Z,32.50
2022-08-17T03:27:51.442Z,32.50
2022-08-17T03:30:18.434Z,32.00
2022-08-17T03:32:50.016Z,33.00
2022-08-17T03:35:20.241Z,33.00
2022-08-17T03:37:56.983Z,32.00
2022-08-17T03:40:55.038Z,33.00
2022-08-17T03:43:15.684Z,33.00
2022-08-17T03:45:43.253Z,33.00
2022-08-17T03:48:11.099Z,32.00
2022-08-17T03:50:37.992Z,32.00
2022-08-17T03:53:10.544Z,33.00
2022-08-17T03:55:38.729Z,33.00
2022-08-17T03:58:05.588Z,34.00
2022-08-17T04:00:32.466Z,32.75
2022-08-17T04:02:59.326Z,32.75
2022-08-17T04:05:26.275Z,33.00
2022-08-17T04:07:53.063Z,33.00
2022-08-17T04:10:22.714Z,33.00
2022-08-17T04:12:54.982Z,32.00
2022-08-17T04:15:22.480Z,32.50
2022-08-17T04:17:49.341Z,32.00
2022-08-17T04:20:19.126Z,33.00
2022-08-17T04:23:17.124Z,32.75
2022-08-17T04:25:47.750Z,33.00
2022-08-17T04:28:16.074Z,33.00
2022-08-17T04:30:44.560Z,33.00
2022-08-17T04:33:14.997Z,33.00
2022-08-17T04:35:45.956Z,33.00
2022-08-17T04:38:16.060Z,33.00
2022-08-17T04:40:44.149Z,34.00
2022-08-17T04:43:12.723Z,33.50
2022-08-17T04:46:00.580Z,34.00
2022-08-17T04:48:37.083Z,34.00
2022-08-17T04:51:11.149Z,33.00
2022-08-17T04:53:40.898Z,33.50
2022-08-17T04:56:16.033Z,33.00
2022-08-17T04:58:53.439Z,33.75
2022-08-17T05:01:23.769Z,34.50
2022-08-17T05:03:58.674Z,34.00
2022-08-17T05:06:27.616Z,33.00
2022-08-17T05:08:55.657Z,33.00
2022-08-17T05:11:24.592Z,33.00
2022-08-17T05:13:51.612Z,33.00
2022-08-17T05:16:20.195Z,33.00
2022-08-17T05:18:47.278Z,34.00
2022-08-17T05:21:18.131Z,33.75
2022-08-17T05:23:47.161Z,33.00
2022-08-17T05:26:26.973Z,33.50
2022-08-17T05:29:02.505Z,34.00
2022-08-17T05:31:42.773Z,34.00
2022-08-17T05:34:09.608Z,36.00
2022-08-17T05:36:43.191Z,35.00
2022-08-17T05:39:15.896Z,34.00
2022-08-17T05:41:46.065Z,34.00
2022-08-17T05:44:12.841Z,33.00
2022-08-17T05:46:43.738Z,33.25
2022-08-17T05:49:14.195Z,34.50
2022-08-17T05:52:00.004Z,34.00
2022-08-17T05:54:46.393Z,35.00
2022-08-17T05:57:22.185Z,35.00
2022-08-17T06:00:30.158Z,34.00
2022-08-17T06:03:15.441Z,35.00
2022-08-17T06:05:54.454Z,34.75
2022-08-17T06:08:39.754Z,34.00
2022-08-17T06:11:28.420Z,34.00
2022-08-17T06:14:32.990Z,34.00
2022-08-17T06:17:06.261Z,36.00
2022-08-17T06:19:40.013Z,34.00
2022-08-17T06:22:11.097Z,34.00
2022-08-17T06:24:48.514Z,34.50
2022-08-17T06:27:47.522Z,34.00
2022-08-17T06:30:27.222Z,33.00
2022-08-17T06:33:19.341Z,34.00
2022-08-17T06:35:56.676Z,34.00
2022-08-17T06:38:49.797Z,35.00
2022-08-17T06:41:39.607Z,34.00
2022-08-17T06:44:12.927Z,34.50
2022-08-17T06:47:11.047Z,34.50
2022-08-17T06:49:55.252Z,35.00
2022-08-17T06:52:45.933Z,35.00
2022-08-17T06:55:37.302Z,34.00
2022-08-17T06:58:16.165Z,34.25
2022-08-17T07:00:47.675Z,35.00
2022-08-17T07:04:00.445Z,35.00
2022-08-17T07:06:40.786Z,35.00
2022-08-17T07:09:48.783Z,36.00
2022-08-17T07:12:21.715Z,36.00
2022-08-17T07:15:03.696Z,37.00
2022-08-17T07:17:47.869Z,36.50
2022-08-17T07:20:20.395Z,37.00
2022-08-17T07:23:05.213Z,36.50
2022-08-17T07:25:32.563Z,36.50
2022-08-17T07:28:03.175Z,36.00
2022-08-17T07:30:44.616Z,35.00
2022-08-17T07:33:34.707Z,35.00
2022-08-17T07:36:01.668Z,36.00
2022-08-17T07:38:31.264Z,35.25
2022-08-17T07:40:58.273Z,37.00
2022-08-17T07:43:47.834Z,35.50
2022-08-17T07:46:18.929Z,36.00
2022-08-17T07:48:53.211Z,36.00
2022-08-17T07:51:24.973Z,35.00
2022-08-17T07:53:53.885Z,35.00
2022-08-17T07:56:50.198Z,35.00
2022-08-17T07:59:23.757Z,36.00
2022-08-17T08:01:57.722Z,35.00
2022-08-17T08:07:19.938Z,35.00
2022-08-17T08:09:59.734Z,34.00
2022-08-17T08:12:40.529Z,33.25
2022-08-17T08:15:13.261Z,34.50
2022-08-17T08:18:00.836Z,34.00
2022-08-17T08:20:53.007Z,34.75
2022-08-17T08:23:29.023Z,35.00
2022-08-17T08:26:18.617Z,35.00
2022-08-17T08:29:10.395Z,35.00
2022-08-17T08:31:55.268Z,34.00
2022-08-17T08:34:44.618Z,34.00
2022-08-17T08:37:44.320Z,34.25
2022-08-17T08:40:32.867Z,35.00
2022-08-17T08:43:05.592Z,35.75
2022-08-17T08:45:52.634Z,34.50
2022-08-17T08:48:56.855Z,34.50
2022-08-17T08:51:51.638Z,35.00
2022-08-17T08:54:52.207Z,34.00
2022-08-17T08:57:32.658Z,34.00
2022-08-17T09:00:17.630Z,34.00
2022-08-17T09:03:28.637Z,34.00
2022-08-17T09:06:33.527Z,34.50
2022-08-17T09:09:34.692Z,35.00
2022-08-17T09:12:31.936Z,35.00
2022-08-17T09:15:12.355Z,35.00
2022-08-17T09:17:47.473Z,35.00
2022-08-17T09:20:53.350Z,35.00
2022-08-17T09:23:41.938Z,35.00
2022-08-17T09:26:25.529Z,35.00
2022-08-17T09:28:56.901Z,35.00
2022-08-17T09:31:49.810Z,36.00
2022-08-17T09:34:29.601Z,35.00
2022-08-17T09:37:27.994Z,35.00
2022-08-17T09:40:07.977Z,35.00
2022-08-17T09:43:04.819Z,35.00
2022-08-17T09:45:42.695Z,35.00
2022-08-17T09:48:25.747Z,35.00
2022-08-17T09:51:09.023Z,35.00
2022-08-17T09:53:38.179Z,35.00
2022-08-17T09:56:33.422Z,35.00
2022-08-17T09:59:37.096Z,36.00
2022-08-17T10:02:43.112Z,35.00
2022-08-17T10:05:32.732Z,35.00
2022-08-17T10:08:13.901Z,35.00
2022-08-17T10:11:08.713Z,35.50
2022-08-17T10:13:53.492Z,37.00
2022-08-17T10:16:32.854Z,36.25
2022-08-17T10:19:23.205Z,36.00
2022-08-17T10:22:01.222Z,36.00
2022-08-17T10:25:21.068Z,36.00
2022-08-17T10:27:51.486Z,36.00
2022-08-17T10:30:45.350Z,35.50
2022-08-17T10:33:40.784Z,37.00
2022-08-17T10:36:17.348Z,36.00
2022-08-17T10:38:47.921Z,36.00
2022-08-17T10:41:33.890Z,35.00
2022-08-17T10:44:39.723Z,36.00
2022-08-17T10:47:12.176Z,36.00
2022-08-17T10:49:42.522Z,36.75
2022-08-17T10:52:25.125Z,36.25
2022-08-17T10:54:54.900Z,37.50
2022-08-17T10:57:31.674Z,37.00
2022-08-17T11:00:01.292Z,36.00
2022-08-17T11:02:40.010Z,37.00
2022-08-17T11:05:26.129Z,36.00
2022-08-17T11:08:23.201Z,37.00
2022-08-17T11:11:19.477Z,38.00
2022-08-17T11:14:31.228Z,36.00
2022-08-17T11:17:25.151Z,36.00
2022-08-17T11:20:24.389Z,35.75
2022-08-17T11:23:32.981Z,35.00
2022-08-17T11:26:03.336Z,35.25
2022-08-17T11:28:34.173Z,35.50
2022-08-17T11:31:23.585Z,35.00
2022-08-17T11:34:22.546Z,35.00
2022-08-17T11:37:07.068Z,35.50
2022-08-17T11:39:43.431Z,35.00
2022-08-17T11:42:16.516Z,35.00
2022-08-17T11:45:06.312Z,35.25
2022-08-17T11:48:16.426Z,35.00
2022-08-17T11:51:09.893Z,35.25
2022-08-17T11:53:43.004Z,35.00
2022-08-17T11:56:29.918Z,35.00
2022-08-17T11:58:56.957Z,35.50
2022-08-17T12:01:23.743Z,36.75
2022-08-17T12:04:13.891Z,36.00
2022-08-17T12:06:53.164Z,36.00
2022-08-17T12:09:32.476Z,35.00
2022-08-17T12:12:14.451Z,36.00
2022-08-17T12:15:11.136Z,36.50
2022-08-17T12:17:41.550Z,35.00
2022-08-17T12:20:19.694Z,36.25
2022-08-17T12:23:08.232Z,36.00
2022-08-17T12:25:46.178Z,37.50
2022-08-17T12:28:27.096Z,35.00
2022-08-17T12:31:01.437Z,35.25
2022-08-17T12:33:29.076Z,37.00
2022-08-17T12:36:03.091Z,36.00
2022-08-17T12:38:35.771Z,36.00
2022-08-17T12:41:06.803Z,36.50
2022-08-17T12:43:33.745Z,36.00
2022-08-17T12:46:17.590Z,38.00
2022-08-17T12:48:59.168Z,38.00
2022-08-17T12:51:27.738Z,38.00
2022-08-17T12:53:55.424Z,37.00
2022-08-17T12:56:22.573Z,35.00
2022-08-17T12:58:52.255Z,35.75
2022-08-17T13:01:19.705Z,36.00
2022-08-17T13:03:57.435Z,35.00
2022-08-17T13:06:31.734Z,35.25
2022-08-17T13:09:11.829Z,36.00
2022-08-17T13:11:52.306Z,36.00
2022-08-17T13:14:19.851Z,36.00
2022-08-17T13:16:54.521Z,37.00
2022-08-17T13:19:39.979Z,37.00
2022-08-17T13:22:12.104Z,35.00
2022-08-17T13:24:51.446Z,34.00
2022-08-17T13:27:22.768Z,35.00
2022-08-17T13:29:53.473Z,35.00
2022-08-17T13:32:34.422Z,36.00
2022-08-17T13:35:14.282Z,36.00
2022-08-17T13:37:58.829Z,37.00
2022-08-17T13:40:30.097Z,35.00
2022-08-17T13:42:57.079Z,35.00
2022-08-17T13:45:36.924Z,36.75
2022-08-17T13:48:11.938Z,38.00
2022-08-17T13:50:43.772Z,36.00
2022-08-17T13:53:25.661Z,35.00
2022-08-17T13:55:56.537Z,35.00
2022-08-17T13:58:28.967Z,36.25
2022-08-17T14:00:56.252Z,35.00
2022-08-17T14:03:24.195Z,36.00
2022-08-17T14:05:52.416Z,35.00
2022-08-17T14:08:20.766Z,35.00
2022-08-17T14:10:58.512Z,35.00
2022-08-17T14:13:28.621Z,35.00
2022-08-17T14:15:57.955Z,36.00
2022-08-17T14:18:55.263Z,36.00
2022-08-17T14:21:12.013Z,36.00
2022-08-17T14:23:41.120Z,36.00
2022-08-17T14:26:33.365Z,35.00
2022-08-17T14:29:01.346Z,34.25
2022-08-17T14:31:28.213Z,36.00
2022-08-17T14:33:57.687Z,34.75
2022-08-17T14:36:24.580Z,35.00
2022-08-17T14:38:51.477Z,37.50
2022-08-17T14:41:22.170Z,36.50
2022-08-17T14:43:51.066Z,37.00
2022-08-17T14:46:41.440Z,36.00
2022-08-17T14:49:09.254Z,37.00
2022-08-17T14:51:43.627Z,36.00
2022-08-17T14:54:32.978Z,37.50
2022-08-17T14:57:22.567Z,36.00
2022-08-17T14:59:51.757Z,37.00
2022-08-17T15:02:29.994Z,36.00
2022-08-17T15:05:03.791Z,35.00
2022-08-17T15:07:31.648Z,36.25
2022-08-17T15:10:00.868Z,37.75
2022-08-17T15:12:32.713Z,36.50
2022-08-17T15:15:05.416Z,36.00
2022-08-17T15:17:44.837Z,37.00
2022-08-17T15:20:19.308Z,36.50
2022-08-17T15:22:47.823Z,35.25
2022-08-17T15:25:17.871Z,36.00
2022-08-17T15:27:44.842Z,36.00
2022-08-17T15:30:12.818Z,35.00
2022-08-17T15:32:41.314Z,36.00
2022-08-17T15:35:18.591Z,36.00
2022-08-17T15:37:45.466Z,35.00
2022-08-17T15:40:13.087Z,37.00
2022-08-17T15:42:40.022Z,36.00
2022-08-17T15:45:13.030Z,36.00
2022-08-17T15:47:43.388Z,35.00
2022-08-17T15:50:10.788Z,34.50
2022-08-17T15:52:37.747Z,35.00
2022-08-17T15:55:06.486Z,35.25
2022-08-17T15:57:33.557Z,36.00
2022-08-17T16:00:00.423Z,35.00
2022-08-17T16:03:46.740Z,35.00
2022-08-17T16:05:21.309Z,35.00
2022-08-17T16:07:52.728Z,36.00
2022-08-17T16:10:35.447Z,35.00
2022-08-17T16:13:04.420Z,35.00
2022-08-17T16:15:32.209Z,34.00
2022-08-17T16:17:59.665Z,35.00
2022-08-17T16:20:27.010Z,35.00
2022-08-17T16:22:55.438Z,35.00
2022-08-17T16:25:49.037Z,35.00
2022-08-17T16:28:15.114Z,35.00
2022-08-17T16:30:42.831Z,34.00
2022-08-17T16:33:12.999Z,34.00
2022-08-17T16:38:31.168Z,36.00
2022-08-17T16:40:59.855Z,34.00
2022-08-17T16:43:26.989Z,35.00
2022-08-17T16:45:56.788Z,34.00
2022-08-17T16:48:23.779Z,35.00
2022-08-17T16:51:03.294Z,34.00
2022-08-17T16:53:31.600Z,33.25
2022-08-17T16:55:58.409Z,34.00
2022-08-17T16:58:25.354Z,34.00
2022-08-17T17:00:52.286Z,34.50
2022-08-17T17:03:25.168Z,35.00
2022-08-17T17:06:03.634Z,36.75
2022-08-17T17:08:53.843Z,37.00
2022-08-17T17:11:30.658Z,35.00
2022-08-17T17:13:59.417Z,34.50
2022-08-17T17:16:29.315Z,36.00
2022-08-17T17:19:11.498Z,34.50
2022-08-17T17:21:51.349Z,34.00
2022-08-17T17:24:32.861Z,34.00
2022-08-17T17:27:08.628Z,34.25
2022-08-17T17:30:13.238Z,34.00
2022-08-17T17:32:52.727Z,34.00
2022-08-17T17:35:33.751Z,34.00
2022-08-17T17:38:15.512Z,35.00
2022-08-17T17:40:46.856Z,34.00
2022-08-17T17:43:38.812Z,34.00
2022-08-17T17:46:26.565Z,34.25
2022-08-17T17:52:10.311Z,34.00
2022-08-17T17:54:48.266Z,35.00
2022-08-17T17:57:15.300Z,34.50
2022-08-17T17:59:54.571Z,34.00
2022-08-17T18:02:53.155Z,33.00
2022-08-17T18:05:44.407Z,33.00
2022-08-17T18:08:11.581Z,35.00
2022-08-17T18:10:48.942Z,34.00
2022-08-17T18:13:46.593Z,33.50
2022-08-17T18:16:15.286Z,33.00
2022-08-17T18:18:46.299Z,33.00
2022-08-17T18:21:47.445Z,33.00
2022-08-17T18:24:14.851Z,33.00
2022-08-17T18:26:46.787Z,33.00
2022-08-17T18:29:32.900Z,33.00
2022-08-17T18:32:24.470Z,34.00
2022-08-17T18:35:01.360Z,33.00
2022-08-17T18:37:44.997Z,34.00
2022-08-17T18:40:17.985Z,33.00
2022-08-17T18:43:00.088Z,33.00
2022-08-17T18:45:39.659Z,33.00
2022-08-17T18:48:26.028Z,32.00
2022-08-17T18:50:58.136Z,33.00
2022-08-17T18:53:39.887Z,32.75
2022-08-17T18:56:30.998Z,33.00
2022-08-17T18:59:10.945Z,34.25
2022-08-17T19:01:59.879Z,34.00
2022-08-17T19:04:35.375Z,33.00
2022-08-17T19:07:07.482Z,32.00
2022-08-17T19:09:40.399Z,32.00
2022-08-17T19:12:11.967Z,32.00
2022-08-17T19:14:40.478Z,33.50
2022-08-17T19:17:29.316Z,32.75
2022-08-17T19:20:06.818Z,34.00
2022-08-17T19:22:56.647Z,34.00
2022-08-17T19:25:31.611Z,33.00
2022-08-17T19:28:22.400Z,32.50
2022-08-17T19:31:03.214Z,32.00
2022-08-17T19:33:34.831Z,33.00
2022-08-17T19:36:22.166Z,33.00
2022-08-17T19:38:53.847Z,33.00
2022-08-17T19:42:52.241Z,32.50
2022-08-17T19:44:49.084Z,34.00
2022-08-17T19:48:04.564Z,32.00
2022-08-17T19:50:54.113Z,32.00
2022-08-17T19:54:05.498Z,32.00
2022-08-17T19:56:54.951Z,32.00
2022-08-17T19:59:59.051Z,31.00
2022-08-17T20:03:00.108Z,31.00
2022-08-17T20:06:09.226Z,31.00
2022-08-17T20:08:39.563Z,31.00
2022-08-17T20:11:15.548Z,32.00
2022-08-17T20:13:50.011Z,33.00
2022-08-17T20:16:19.432Z,32.50
2022-08-17T20:18:59.507Z,32.00
2022-08-17T20:21:52.185Z,32.00
2022-08-17T20:24:30.310Z,33.00
2022-08-17T20:27:09.153Z,32.00
2022-08-17T20:30:17.393Z,32.00
2022-08-17T20:32:59.317Z,32.00
2022-08-17T20:35:33.393Z,32.00
2022-08-17T20:38:05.427Z,31.75
2022-08-17T20:40:57.099Z,31.00
2022-08-17T20:43:29.976Z,31.00
2022-08-17T20:46:16.171Z,32.75
2022-08-17T20:48:57.971Z,32.00
2022-08-17T20:51:24.848Z,33.00
2022-08-17T20:53:51.599Z,31.00
2022-08-17T20:56:44.793Z,32.75
2022-08-17T20:59:20.669Z,32.00
2022-08-17T21:02:03.526Z,32.00
2022-08-17T21:04:44.164Z,31.50
2022-08-17T21:07:43.640Z,33.00
2022-08-17T21:10:26.062Z,32.00
2022-08-17T21:12:55.802Z,34.00
2022-08-17T21:15:47.552Z,32.50
2022-08-17T21:18:49.719Z,32.00
2022-08-17T21:21:40.469Z,32.00
2022-08-17T21:24:34.800Z,31.75
2022-08-17T21:27:26.220Z,32.00
2022-08-17T21:30:02.241Z,32.00
2022-08-17T21:32:36.032Z,31.50
2022-08-17T21:35:11.852Z,32.00
2022-08-17T21:37:38.801Z,32.00
2022-08-17T21:40:11.649Z,32.00
2022-08-17T21:42:49.471Z,32.00
2022-08-17T21:45:28.976Z,32.00
2022-08-17T21:48:20.490Z,33.00
2022-08-17T21:51:38.734Z,32.00
2022-08-17T21:54:27.370Z,32.00
2022-08-17T21:56:54.733Z,32.00
2022-08-17T21:59:24.606Z,32.00
2022-08-17T22:01:54.657Z,32.00
2022-08-17T22:04:27.740Z,32.00
2022-08-17T22:06:57.607Z,32.75
2022-08-17T22:09:34.578Z,32.00
2022-08-17T22:12:12.301Z,31.25
2022-08-17T22:14:59.700Z,32.00
2022-08-17T22:17:37.312Z,32.00
2022-08-17T22:20:12.280Z,32.00
2022-08-17T22:23:01.456Z,31.50
2022-08-17T22:25:29.106Z,31.75
2022-08-17T22:27:59.458Z,32.00
2022-08-17T22:30:58.158Z,32.00
2022-08-17T22:33:33.199Z,33.00
2022-08-17T22:36:10.826Z,32.50
2022-08-17T22:38:38.528Z,32.00
2022-08-17T22:41:36.531Z,33.00
2022-08-17T22:44:49.858Z,32.25
2022-08-17T22:47:16.804Z,32.00
2022-08-17T22:50:00.139Z,31.00
2022-08-17T22:52:37.397Z,31.00
2022-08-17T22:55:16.138Z,31.50
2022-08-17T22:57:47.465Z,32.00
2022-08-17T23:00:33.384Z,32.00
2022-08-17T23:03:21.852Z,33.00
2022-08-17T23:06:09.341Z,32.00
2022-08-17T23:08:38.312Z,32.00
2022-08-17T23:11:06.610Z,31.00
2022-08-17T23:13:33.554Z,32.00
2022-08-17T23:16:00.528Z,33.00
2022-08-17T23:18:27.545Z,32.00
2022-08-17T23:20:54.539Z,33.00
2022-08-17T23:23:23.692Z,31.00
2022-08-17T23:25:50.794Z,31.50
2022-08-17T23:28:18.874Z,32.00
2022-08-17T23:30:45.781Z,32.00
2022-08-17T23:33:23.021Z,32.00
2022-08-17T23:35:56.067Z,32.00
2022-08-17T23:38:23.011Z,32.00
2022-08-17T23:40:53.963Z,32.00
2022-08-17T23:43:25.336Z,32.50
2022-08-17T23:45:56.690Z,31.50
2022-08-17T23:48:32.465Z,33.00
2022-08-17T23:51:26.909Z,32.00
2022-08-17T23:53:58.199Z,33.00
2022-08-17T23:56:25.149Z,31.50
2022-08-17T23:58:54.061Z,31.75
